sensor_id;sensor_type;location;lat;lon;timestamp;P1;durP1;ratioP1;P2;durP2;ratioP2
53757;SDS011;39674;59.860;30.672;2022-09-09T00:02:34;36.58;;;16.70;;
53757;SDS011;39674;59.860;30.672;2022-09-09T00:05:14;28.50;;;16.02;;
53757;SDS011;39674;59.860;30.672;2022-09-09T00:08:06;30.75;;;17.73;;
53757;SDS011;39674;59.860;30.672;2022-09-09T00:10:49;25.10;;;16.33;;
53757;SDS011;39674;59.860;30.672;2022-09-09T00:13:34;30.08;;;17.38;;
53757;SDS011;39674;59.860;30.672;2022-09-09T00:16:25;26.77;;;17.38;;
53757;SDS011;39674;59.860;30.672;2022-09-09T00:19:07;29.25;;;19.27;;
53757;SDS011;39674;59.860;30.672;2022-09-09T00:21:43;32.03;;;17.77;;
53757;SDS011;39674;59.860;30.672;2022-09-09T00:24:29;35.80;;;17.10;;
53757;SDS011;39674;59.860;30.672;2022-09-09T00:27:22;29.38;;;17.95;;
53757;SDS011;39674;59.860;30.672;2022-09-09T00:30:11;28.58;;;17.08;;
53757;SDS011;39674;59.860;30.672;2022-09-09T00:32:52;32.47;;;16.98;;
53757;SDS011;39674;59.860;30.672;2022-09-09T00:35:25;30.58;;;19.70;;
53757;SDS011;39674;59.860;30.672;2022-09-09T00:38:14;25.58;;;17.92;;
53757;SDS011;39674;59.860;30.672;2022-09-09T00:43:25;23.42;;;16.10;;
53757;SDS011;39674;59.860;30.672;2022-09-09T00:46:14;26.52;;;16.67;;
53757;SDS011;39674;59.860;30.672;2022-09-09T00:49:18;27.20;;;15.23;;
53757;SDS011;39674;59.860;30.672;2022-09-09T00:52:09;28.95;;;16.63;;
53757;SDS011;39674;59.860;30.672;2022-09-09T00:54:53;26.45;;;16.00;;
53757;SDS011;39674;59.860;30.672;2022-09-09T00:57:38;22.92;;;14.43;;
53757;SDS011;39674;59.860;30.672;2022-09-09T01:00:22;28.25;;;16.63;;
53757;SDS011;39674;59.860;30.672;2022-09-09T01:05:54;27.88;;;14.63;;
53757;SDS011;39674;59.860;30.672;2022-09-09T01:08:39;25.40;;;14.82;;
53757;SDS011;39674;59.860;30.672;2022-09-09T01:11:26;22.38;;;16.25;;
53757;SDS011;39674;59.860;30.672;2022-09-09T01:14:11;23.88;;;16.27;;
53757;SDS011;39674;59.860;30.672;2022-09-09T01:16:56;31.83;;;16.30;;
53757;SDS011;39674;59.860;30.672;2022-09-09T01:19:37;23.88;;;17.42;;
53757;SDS011;39674;59.860;30.672;2022-09-09T01:22:22;36.72;;;16.80;;
53757;SDS011;39674;59.860;30.672;2022-09-09T01:25:15;37.50;;;19.00;;
53757;SDS011;39674;59.860;30.672;2022-09-09T01:28:11;24.42;;;17.48;;
53757;SDS011;39674;59.860;30.672;2022-09-09T01:31:14;28.92;;;17.13;;
53757;SDS011;39674;59.860;30.672;2022-09-09T01:34:13;24.10;;;15.85;;
53757;SDS011;39674;59.860;30.672;2022-09-09T01:36:45;31.23;;;16.43;;
53757;SDS011;39674;59.860;30.672;2022-09-09T01:39:21;25.98;;;16.20;;
53757;SDS011;39674;59.860;30.672;2022-09-09T01:42:03;29.15;;;16.63;;
53757;SDS011;39674;59.860;30.672;2022-09-09T01:44:42;31.23;;;16.00;;
53757;SDS011;39674;59.860;30.672;2022-09-09T01:47:20;31.33;;;15.52;;
53757;SDS011;39674;59.860;30.672;2022-09-09T01:50:16;29.80;;;15.88;;
53757;SDS011;39674;59.860;30.672;2022-09-09T01:52:56;28.50;;;14.95;;
53757;SDS011;39674;59.860;30.672;2022-09-09T01:55:33;23.42;;;14.50;;
53757;SDS011;39674;59.860;30.672;2022-09-09T01:58:24;26.17;;;15.20;;
53757;SDS011;39674;59.860;30.672;2022-09-09T02:01:08;26.83;;;14.85;;
53757;SDS011;39674;59.860;30.672;2022-09-09T02:03:53;21.65;;;13.48;;
53757;SDS011;39674;59.860;30.672;2022-09-09T02:09:11;34.28;;;13.15;;
53757;SDS011;39674;59.860;30.672;2022-09-09T02:11:55;27.88;;;14.75;;
53757;SDS011;39674;59.860;30.672;2022-09-09T02:14:49;28.13;;;15.73;;
53757;SDS011;39674;59.860;30.672;2022-09-09T02:17:30;32.08;;;16.40;;
53757;SDS011;39674;59.860;30.672;2022-09-09T02:20:16;35.40;;;16.20;;
53757;SDS011;39674;59.860;30.672;2022-09-09T02:23:13;26.58;;;15.27;;
53757;SDS011;39674;59.860;30.672;2022-09-09T02:25:50;22.23;;;14.02;;
53757;SDS011;39674;59.860;30.672;2022-09-09T02:28:24;24.17;;;13.27;;
53757;SDS011;39674;59.860;30.672;2022-09-09T02:31:08;27.15;;;16.30;;
53757;SDS011;39674;59.860;30.672;2022-09-09T02:34:04;23.42;;;14.27;;
53757;SDS011;39674;59.860;30.672;2022-09-09T02:36:43;22.45;;;14.82;;
53757;SDS011;39674;59.860;30.672;2022-09-09T02:39:16;25.13;;;14.73;;
53757;SDS011;39674;59.860;30.672;2022-09-09T02:42:00;23.58;;;14.30;;
53757;SDS011;39674;59.860;30.672;2022-09-09T02:44:33;30.17;;;14.13;;
53757;SDS011;39674;59.860;30.672;2022-09-09T02:49:55;27.88;;;14.68;;
53757;SDS011;39674;59.860;30.672;2022-09-09T02:52:45;22.70;;;15.90;;
53757;SDS011;39674;59.860;30.672;2022-09-09T02:55:34;21.17;;;14.55;;
53757;SDS011;39674;59.860;30.672;2022-09-09T02:58:12;24.25;;;14.07;;
53757;SDS011;39674;59.860;30.672;2022-09-09T03:00:59;22.65;;;13.85;;
53757;SDS011;39674;59.860;30.672;2022-09-09T03:03:30;26.48;;;15.25;;
53757;SDS011;39674;59.860;30.672;2022-09-09T03:06:19;19.27;;;12.90;;
53757;SDS011;39674;59.860;30.672;2022-09-09T03:09:01;30.73;;;14.85;;
53757;SDS011;39674;59.860;30.672;2022-09-09T03:11:50;25.13;;;14.23;;
53757;SDS011;39674;59.860;30.672;2022-09-09T03:14:21;36.70;;;13.30;;
53757;SDS011;39674;59.860;30.672;2022-09-09T03:16:56;27.00;;;14.00;;
53757;SDS011;39674;59.860;30.672;2022-09-09T03:19:38;34.67;;;13.13;;
53757;SDS011;39674;59.860;30.672;2022-09-09T03:22:15;22.05;;;14.50;;
53757;SDS011;39674;59.860;30.672;2022-09-09T03:24:52;30.10;;;14.00;;
53757;SDS011;39674;59.860;30.672;2022-09-09T03:27:23;31.75;;;17.90;;
53757;SDS011;39674;59.860;30.672;2022-09-09T03:29:55;29.17;;;16.08;;
53757;SDS011;39674;59.860;30.672;2022-09-09T03:32:34;24.85;;;15.98;;
53757;SDS011;39674;59.860;30.672;2022-09-09T03:35:10;35.60;;;16.15;;
53757;SDS011;39674;59.860;30.672;2022-09-09T03:37:47;25.90;;;14.40;;
53757;SDS011;39674;59.860;30.672;2022-09-09T03:40:22;25.08;;;13.52;;
53757;SDS011;39674;59.860;30.672;2022-09-09T03:42:59;21.00;;;13.77;;
53757;SDS011;39674;59.860;30.672;2022-09-09T03:45:30;20.92;;;14.10;;
53757;SDS011;39674;59.860;30.672;2022-09-09T03:48:07;24.77;;;14.10;;
53757;SDS011;39674;59.860;30.672;2022-09-09T03:51:08;26.75;;;14.52;;
53757;SDS011;39674;59.860;30.672;2022-09-09T03:53:43;22.58;;;13.57;;
53757;SDS011;39674;59.860;30.672;2022-09-09T03:56:17;29.42;;;13.60;;
53757;SDS011;39674;59.860;30.672;2022-09-09T03:58:53;32.72;;;13.27;;
53757;SDS011;39674;59.860;30.672;2022-09-09T04:01:25;21.73;;;13.02;;
53757;SDS011;39674;59.860;30.672;2022-09-09T04:03:54;30.42;;;13.68;;
53757;SDS011;39674;59.860;30.672;2022-09-09T04:06:25;21.27;;;14.55;;
53757;SDS011;39674;59.860;30.672;2022-09-09T04:08:59;21.95;;;14.75;;
53757;SDS011;39674;59.860;30.672;2022-09-09T04:11:35;26.92;;;14.52;;
53757;SDS011;39674;59.860;30.672;2022-09-09T04:14:15;29.02;;;13.75;;
53757;SDS011;39674;59.860;30.672;2022-09-09T04:17:10;34.65;;;14.60;;
53757;SDS011;39674;59.860;30.672;2022-09-09T04:19:43;26.15;;;14.05;;
53757;SDS011;39674;59.860;30.672;2022-09-09T04:22:14;26.95;;;13.93;;
53757;SDS011;39674;59.860;30.672;2022-09-09T04:24:51;30.50;;;14.80;;
53757;SDS011;39674;59.860;30.672;2022-09-09T04:27:27;23.08;;;13.27;;
53757;SDS011;39674;59.860;30.672;2022-09-09T04:30:06;24.75;;;12.30;;
53757;SDS011;39674;59.860;30.672;2022-09-09T04:32:42;30.75;;;14.02;;
53757;SDS011;39674;59.860;30.672;2022-09-09T04:35:53;48.97;;;14.95;;
53757;SDS011;39674;59.860;30.672;2022-09-09T04:39:08;53.65;;;15.88;;
53757;SDS011;39674;59.860;30.672;2022-09-09T04:48:09;33.28;;;13.80;;
53757;SDS011;39674;59.860;30.672;2022-09-09T04:51:06;30.38;;;12.77;;
53757;SDS011;39674;59.860;30.672;2022-09-09T05:04:04;41.28;;;15.00;;
53757;SDS011;39674;59.860;30.672;2022-09-09T05:07:15;35.05;;;13.80;;
53757;SDS011;39674;59.860;30.672;2022-09-09T05:10:22;44.42;;;13.02;;
53757;SDS011;39674;59.860;30.672;2022-09-09T05:20:40;34.60;;;13.23;;
53757;SDS011;39674;59.860;30.672;2022-09-09T05:27:19;36.20;;;11.68;;
53757;SDS011;39674;59.860;30.672;2022-09-09T05:31:50;31.70;;;12.43;;
53757;SDS011;39674;59.860;30.672;2022-09-09T05:34:39;37.40;;;12.55;;
53757;SDS011;39674;59.860;30.672;2022-09-09T05:47:58;36.22;;;13.90;;
53757;SDS011;39674;59.860;30.672;2022-09-09T05:55:10;36.45;;;11.93;;
53757;SDS011;39674;59.860;30.672;2022-09-09T05:58:14;33.25;;;11.18;;
53757;SDS011;39674;59.860;30.672;2022-09-09T06:01:39;22.83;;;9.30;;
53757;SDS011;39674;59.860;30.672;2022-09-09T06:23:00;35.00;;;8.10;;
53757;SDS011;39674;59.860;30.672;2022-09-09T06:26:38;22.17;;;6.85;;
53757;SDS011;39674;59.860;30.672;2022-09-09T06:43:24;22.92;;;6.82;;
53757;SDS011;39674;59.860;30.672;2022-09-09T06:46:34;23.60;;;6.47;;
53757;SDS011;39674;59.860;30.672;2022-09-09T06:50:23;13.98;;;5.03;;
53757;SDS011;39674;59.860;30.672;2022-09-09T06:53:05;9.80;;;4.82;;
53757;SDS011;39674;59.860;30.672;2022-09-09T06:56:26;14.50;;;4.85;;
53757;SDS011;39674;59.860;30.672;2022-09-09T07:06:52;17.10;;;5.10;;
53757;SDS011;39674;59.860;30.672;2022-09-09T07:09:46;17.70;;;5.35;;
53757;SDS011;39674;59.860;30.672;2022-09-09T07:12:57;24.00;;;5.63;;
53757;SDS011;39674;59.860;30.672;2022-09-09T07:30:28;22.95;;;5.68;;
53757;SDS011;39674;59.860;30.672;2022-09-09T08:39:50;18.88;;;4.32;;
53757;SDS011;39674;59.860;30.672;2022-09-09T08:42:36;10.73;;;4.00;;
53757;SDS011;39674;59.860;30.672;2022-09-09T08:45:19;6.43;;;2.25;;
53757;SDS011;39674;59.860;30.672;2022-09-09T08:48:32;8.40;;;2.47;;
53757;SDS011;39674;59.860;30.672;2022-09-09T08:51:39;10.48;;;2.60;;
53757;SDS011;39674;59.860;30.672;2022-09-09T08:54:26;7.15;;;2.30;;
53757;SDS011;39674;59.860;30.672;2022-09-09T08:57:20;5.95;;;2.20;;
53757;SDS011;39674;59.860;30.672;2022-09-09T09:00:36;6.88;;;2.40;;
53757;SDS011;39674;59.860;30.672;2022-09-09T09:03:21;11.02;;;2.70;;
53757;SDS011;39674;59.860;30.672;2022-09-09T09:06:34;10.70;;;3.17;;
53757;SDS011;39674;59.860;30.672;2022-09-09T09:09:17;6.68;;;2.65;;
53757;SDS011;39674;59.860;30.672;2022-09-09T09:19:00;9.32;;;2.78;;
53757;SDS011;39674;59.860;30.672;2022-09-09T09:22:10;13.43;;;2.88;;
53757;SDS011;39674;59.860;30.672;2022-09-09T09:25:01;8.88;;;3.03;;
53757;SDS011;39674;59.860;30.672;2022-09-09T09:27:51;10.73;;;2.75;;
53757;SDS011;39674;59.860;30.672;2022-09-09T09:30:34;7.10;;;2.20;;
53757;SDS011;39674;59.860;30.672;2022-09-09T09:33:46;8.15;;;2.97;;
53757;SDS011;39674;59.860;30.672;2022-09-09T09:36:29;8.68;;;3.22;;
53757;SDS011;39674;59.860;30.672;2022-09-09T09:39:37;12.27;;;3.58;;
53757;SDS011;39674;59.860;30.672;2022-09-09T09:42:19;15.13;;;4.90;;
53757;SDS011;39674;59.860;30.672;2022-09-09T09:45:50;19.08;;;3.85;;
53757;SDS011;39674;59.860;30.672;2022-09-09T09:48:17;9.77;;;3.40;;
53757;SDS011;39674;59.860;30.672;2022-09-09T09:51:34;8.02;;;3.38;;
53757;SDS011;39674;59.860;30.672;2022-09-09T09:54:37;7.55;;;3.15;;
53757;SDS011;39674;59.860;30.672;2022-09-09T09:57:22;11.40;;;3.22;;
53757;SDS011;39674;59.860;30.672;2022-09-09T10:00:04;13.30;;;3.35;;
53757;SDS011;39674;59.860;30.672;2022-09-09T10:03:13;5.65;;;2.63;;
53757;SDS011;39674;59.860;30.672;2022-09-09T10:07:09;7.65;;;2.63;;
53757;SDS011;39674;59.860;30.672;2022-09-09T10:10:00;7.53;;;2.13;;
53757;SDS011;39674;59.860;30.672;2022-09-09T10:12:41;6.32;;;2.40;;
53757;SDS011;39674;59.860;30.672;2022-09-09T10:15:42;4.47;;;2.63;;
53757;SDS011;39674;59.860;30.672;2022-09-09T10:18:42;11.98;;;3.10;;
53757;SDS011;39674;59.860;30.672;2022-09-09T10:21:24;13.45;;;4.32;;
53757;SDS011;39674;59.860;30.672;2022-09-09T10:27:39;8.75;;;3.13;;
53757;SDS011;39674;59.860;30.672;2022-09-09T10:30:27;6.70;;;2.80;;
53757;SDS011;39674;59.860;30.672;2022-09-09T10:33:36;11.38;;;3.53;;
53757;SDS011;39674;59.860;30.672;2022-09-09T10:36:30;6.15;;;1.88;;
53757;SDS011;39674;59.860;30.672;2022-09-09T10:39:03;4.63;;;1.98;;
53757;SDS011;39674;59.860;30.672;2022-09-09T10:42:09;14.52;;;5.20;;
53757;SDS011;39674;59.860;30.672;2022-09-09T10:44:59;9.60;;;2.33;;
53757;SDS011;39674;59.860;30.672;2022-09-09T10:47:59;10.55;;;3.60;;
53757;SDS011;39674;59.860;30.672;2022-09-09T10:51:26;6.18;;;2.05;;
53757;SDS011;39674;59.860;30.672;2022-09-09T10:54:22;9.00;;;2.17;;
53757;SDS011;39674;59.860;30.672;2022-09-09T10:57:18;6.78;;;2.33;;
53757;SDS011;39674;59.860;30.672;2022-09-09T11:03:59;8.80;;;2.58;;
53757;SDS011;39674;59.860;30.672;2022-09-09T11:09:47;4.35;;;2.03;;
53757;SDS011;39674;59.860;30.672;2022-09-09T11:12:43;10.05;;;2.83;;
53757;SDS011;39674;59.860;30.672;2022-09-09T11:15:35;6.95;;;1.90;;
53757;SDS011;39674;59.860;30.672;2022-09-09T11:18:32;4.55;;;1.98;;
53757;SDS011;39674;59.860;30.672;2022-09-09T11:21:10;3.38;;;1.45;;
53757;SDS011;39674;59.860;30.672;2022-09-09T11:24:03;14.18;;;2.40;;
53757;SDS011;39674;59.860;30.672;2022-09-09T11:26:47;10.65;;;2.40;;
53757;SDS011;39674;59.860;30.672;2022-09-09T11:29:31;5.80;;;1.80;;
53757;SDS011;39674;59.860;30.672;2022-09-09T11:39:44;11.70;;;1.70;;
53757;SDS011;39674;59.860;30.672;2022-09-09T11:42:40;5.57;;;1.88;;
53757;SDS011;39674;59.860;30.672;2022-09-09T11:48:28;9.65;;;2.60;;
53757;SDS011;39674;59.860;30.672;2022-09-09T11:51:25;23.20;;;2.63;;
53757;SDS011;39674;59.860;30.672;2022-09-09T11:57:32;5.85;;;1.65;;
53757;SDS011;39674;59.860;30.672;2022-09-09T12:01:00;5.20;;;2.58;;
53757;SDS011;39674;59.860;30.672;2022-09-09T12:04:34;5.93;;;2.00;;
53757;SDS011;39674;59.860;30.672;2022-09-09T12:11:34;4.60;;;1.70;;
53757;SDS011;39674;59.860;30.672;2022-09-09T12:14:43;8.82;;;2.50;;
53757;SDS011;39674;59.860;30.672;2022-09-09T12:17:44;5.75;;;1.77;;
53757;SDS011;39674;59.860;30.672;2022-09-09T12:20:42;4.13;;;1.88;;
53757;SDS011;39674;59.860;30.672;2022-09-09T12:23:35;4.57;;;1.63;;
53757;SDS011;39674;59.860;30.672;2022-09-09T12:30:11;5.60;;;2.15;;
53757;SDS011;39674;59.860;30.672;2022-09-09T12:33:00;9.05;;;1.92;;
53757;SDS011;39674;59.860;30.672;2022-09-09T12:35:55;6.53;;;1.77;;
53757;SDS011;39674;59.860;30.672;2022-09-09T12:38:34;4.35;;;1.30;;
53757;SDS011;39674;59.860;30.672;2022-09-09T12:41:20;10.25;;;1.80;;
53757;SDS011;39674;59.860;30.672;2022-09-09T12:47:09;10.23;;;3.90;;
53757;SDS011;39674;59.860;30.672;2022-09-09T12:49:55;25.30;;;5.68;;
53757;SDS011;39674;59.860;30.672;2022-09-09T12:52:42;6.57;;;2.20;;
53757;SDS011;39674;59.860;30.672;2022-09-09T12:55:17;15.10;;;3.08;;
53757;SDS011;39674;59.860;30.672;2022-09-09T12:57:59;12.32;;;2.95;;
53757;SDS011;39674;59.860;30.672;2022-09-09T13:00:48;11.55;;;2.63;;
53757;SDS011;39674;59.860;30.672;2022-09-09T13:03:25;15.10;;;2.40;;
53757;SDS011;39674;59.860;30.672;2022-09-09T13:06:25;11.10;;;3.00;;
53757;SDS011;39674;59.860;30.672;2022-09-09T13:08:58;15.65;;;4.03;;
53757;SDS011;39674;59.860;30.672;2022-09-09T13:11:44;7.30;;;2.60;;
53757;SDS011;39674;59.860;30.672;2022-09-09T13:15:00;11.75;;;2.70;;
53757;SDS011;39674;59.860;30.672;2022-09-09T13:18:10;9.40;;;2.90;;
53757;SDS011;39674;59.860;30.672;2022-09-09T13:20:55;10.88;;;1.83;;
53757;SDS011;39674;59.860;30.672;2022-09-09T13:23:29;10.02;;;2.53;;
53757;SDS011;39674;59.860;30.672;2022-09-09T13:26:20;12.73;;;3.10;;
53757;SDS011;39674;59.860;30.672;2022-09-09T13:28:54;6.32;;;2.15;;
53757;SDS011;39674;59.860;30.672;2022-09-09T13:32:05;5.50;;;2.20;;
53757;SDS011;39674;59.860;30.672;2022-09-09T13:34:49;21.20;;;3.08;;
53757;SDS011;39674;59.860;30.672;2022-09-09T13:37:41;7.50;;;2.03;;
53757;SDS011;39674;59.860;30.672;2022-09-09T13:40:28;9.10;;;2.50;;
53757;SDS011;39674;59.860;30.672;2022-09-09T13:43:14;12.40;;;2.35;;
53757;SDS011;39674;59.860;30.672;2022-09-09T13:45:52;7.25;;;1.90;;
53757;SDS011;39674;59.860;30.672;2022-09-09T13:48:29;9.50;;;1.90;;
53757;SDS011;39674;59.860;30.672;2022-09-09T13:51:26;5.18;;;1.90;;
53757;SDS011;39674;59.860;30.672;2022-09-09T13:54:22;12.02;;;2.35;;
53757;SDS011;39674;59.860;30.672;2022-09-09T13:56:52;26.42;;;3.33;;
53757;SDS011;39674;59.860;30.672;2022-09-09T14:05:39;9.13;;;2.50;;
53757;SDS011;39674;59.860;30.672;2022-09-09T14:08:26;8.45;;;2.38;;
53757;SDS011;39674;59.860;30.672;2022-09-09T14:11:12;11.95;;;3.10;;
53757;SDS011;39674;59.860;30.672;2022-09-09T14:14:22;13.70;;;2.70;;
53757;SDS011;39674;59.860;30.672;2022-09-09T14:17:07;14.80;;;2.85;;
53757;SDS011;39674;59.860;30.672;2022-09-09T14:19:42;11.82;;;3.05;;
53757;SDS011;39674;59.860;30.672;2022-09-09T14:22:19;10.82;;;3.00;;
53757;SDS011;39674;59.860;30.672;2022-09-09T14:25:04;15.23;;;3.00;;
53757;SDS011;39674;59.860;30.672;2022-09-09T14:27:58;12.80;;;2.72;;
53757;SDS011;39674;59.860;30.672;2022-09-09T14:30:30;12.38;;;4.53;;
53757;SDS011;39674;59.860;30.672;2022-09-09T14:33:18;14.63;;;3.60;;
53757;SDS011;39674;59.860;30.672;2022-09-09T14:35:59;13.50;;;3.10;;
53757;SDS011;39674;59.860;30.672;2022-09-09T14:38:37;10.23;;;4.10;;
53757;SDS011;39674;59.860;30.672;2022-09-09T14:41:26;14.75;;;7.05;;
53757;SDS011;39674;59.860;30.672;2022-09-09T14:44:21;26.65;;;11.13;;
53757;SDS011;39674;59.860;30.672;2022-09-09T14:47:12;16.02;;;7.43;;
53757;SDS011;39674;59.860;30.672;2022-09-09T14:49:53;11.00;;;5.65;;
53757;SDS011;39674;59.860;30.672;2022-09-09T14:52:29;8.20;;;4.60;;
53757;SDS011;39674;59.860;30.672;2022-09-09T14:55:09;10.32;;;4.20;;
53757;SDS011;39674;59.860;30.672;2022-09-09T14:58:10;10.18;;;4.63;;
53757;SDS011;39674;59.860;30.672;2022-09-09T15:00:54;13.30;;;5.03;;
53757;SDS011;39674;59.860;30.672;2022-09-09T15:03:33;12.63;;;2.47;;
53757;SDS011;39674;59.860;30.672;2022-09-09T15:09:05;12.57;;;3.00;;
53757;SDS011;39674;59.860;30.672;2022-09-09T15:11:37;7.13;;;2.22;;
53757;SDS011;39674;59.860;30.672;2022-09-09T15:14:28;8.75;;;2.20;;
53757;SDS011;39674;59.860;30.672;2022-09-09T15:17:13;8.88;;;2.03;;
53757;SDS011;39674;59.860;30.672;2022-09-09T15:19:45;11.05;;;1.98;;
53757;SDS011;39674;59.860;30.672;2022-09-09T15:22:43;9.45;;;2.63;;
53757;SDS011;39674;59.860;30.672;2022-09-09T15:25:33;6.13;;;2.63;;
53757;SDS011;39674;59.860;30.672;2022-09-09T15:28:17;11.27;;;2.42;;
53757;SDS011;39674;59.860;30.672;2022-09-09T15:31:02;9.65;;;2.53;;
53757;SDS011;39674;59.860;30.672;2022-09-09T15:33:56;13.98;;;4.82;;
53757;SDS011;39674;59.860;30.672;2022-09-09T15:36:30;11.63;;;4.05;;
53757;SDS011;39674;59.860;30.672;2022-09-09T15:39:02;8.90;;;4.03;;
53757;SDS011;39674;59.860;30.672;2022-09-09T15:41:48;7.35;;;3.20;;
53757;SDS011;39674;59.860;30.672;2022-09-09T15:44:38;7.93;;;3.83;;
53757;SDS011;39674;59.860;30.672;2022-09-09T15:47:40;9.68;;;3.70;;
53757;SDS011;39674;59.860;30.672;2022-09-09T15:50:10;13.07;;;4.30;;
53757;SDS011;39674;59.860;30.672;2022-09-09T15:52:44;17.42;;;4.53;;
53757;SDS011;39674;59.860;30.672;2022-09-09T15:55:34;13.45;;;4.40;;
53757;SDS011;39674;59.860;30.672;2022-09-09T15:58:13;9.32;;;4.18;;
53757;SDS011;39674;59.860;30.672;2022-09-09T16:00:46;13.93;;;4.75;;
53757;SDS011;39674;59.860;30.672;2022-09-09T16:03:44;10.48;;;3.05;;
53757;SDS011;39674;59.860;30.672;2022-09-09T16:06:22;17.88;;;3.00;;
53757;SDS011;39674;59.860;30.672;2022-09-09T16:09:01;13.20;;;3.22;;
53757;SDS011;39674;59.860;30.672;2022-09-09T16:11:39;7.63;;;2.30;;
53757;SDS011;39674;59.860;30.672;2022-09-09T16:14:39;9.43;;;3.08;;
53757;SDS011;39674;59.860;30.672;2022-09-09T16:20:05;9.63;;;2.38;;
53757;SDS011;39674;59.860;30.672;2022-09-09T16:25:56;9.85;;;2.55;;
53757;SDS011;39674;59.860;30.672;2022-09-09T16:28:41;11.75;;;2.92;;
53757;SDS011;39674;59.860;30.672;2022-09-09T16:31:16;10.70;;;3.33;;
53757;SDS011;39674;59.860;30.672;2022-09-09T16:33:55;9.60;;;3.05;;
53757;SDS011;39674;59.860;30.672;2022-09-09T16:36:29;10.32;;;3.53;;
53757;SDS011;39674;59.860;30.672;2022-09-09T16:39:27;12.30;;;3.30;;
53757;SDS011;39674;59.860;30.672;2022-09-09T16:42:24;8.10;;;3.40;;
53757;SDS011;39674;59.860;30.672;2022-09-09T16:45:17;12.75;;;3.70;;
53757;SDS011;39674;59.860;30.672;2022-09-09T16:47:55;17.17;;;4.43;;
53757;SDS011;39674;59.860;30.672;2022-09-09T16:51:03;15.43;;;5.40;;
53757;SDS011;39674;59.860;30.672;2022-09-09T16:54:01;23.67;;;7.95;;
53757;SDS011;39674;59.860;30.672;2022-09-09T16:56:39;15.18;;;8.35;;
53757;SDS011;39674;59.860;30.672;2022-09-09T16:59:22;20.45;;;13.20;;
53757;SDS011;39674;59.860;30.672;2022-09-09T17:02:23;38.30;;;21.52;;
53757;SDS011;39674;59.860;30.672;2022-09-09T17:05:00;22.33;;;13.38;;
53757;SDS011;39674;59.860;30.672;2022-09-09T17:07:37;29.75;;;15.25;;
53757;SDS011;39674;59.860;30.672;2022-09-09T17:10:34;37.63;;;21.25;;
53757;SDS011;39674;59.860;30.672;2022-09-09T17:13:33;30.33;;;20.33;;
53757;SDS011;39674;59.860;30.672;2022-09-09T17:16:04;33.67;;;20.92;;
53757;SDS011;39674;59.860;30.672;2022-09-09T17:18:45;30.17;;;19.77;;
53757;SDS011;39674;59.860;30.672;2022-09-09T17:21:32;32.30;;;18.92;;
53757;SDS011;39674;59.860;30.672;2022-09-09T17:24:26;24.05;;;16.75;;
53757;SDS011;39674;59.860;30.672;2022-09-09T17:27:26;24.35;;;14.05;;
53757;SDS011;39674;59.860;30.672;2022-09-09T17:33:28;18.40;;;13.88;;
53757;SDS011;39674;59.860;30.672;2022-09-09T17:36:10;20.88;;;12.23;;
53757;SDS011;39674;59.860;30.672;2022-09-09T17:39:07;20.73;;;12.25;;
53757;SDS011;39674;59.860;30.672;2022-09-09T17:41:57;16.67;;;11.00;;
53757;SDS011;39674;59.860;30.672;2022-09-09T17:44:34;15.65;;;9.68;;
53757;SDS011;39674;59.860;30.672;2022-09-09T17:47:17;16.80;;;12.20;;
53757;SDS011;39674;59.860;30.672;2022-09-09T17:49:49;17.58;;;12.75;;
53757;SDS011;39674;59.860;30.672;2022-09-09T17:52:23;18.75;;;12.63;;
53757;SDS011;39674;59.860;30.672;2022-09-09T17:54:54;17.15;;;13.02;;
53757;SDS011;39674;59.860;30.672;2022-09-09T17:57:37;25.58;;;13.40;;
53757;SDS011;39674;59.860;30.672;2022-09-09T18:00:18;19.70;;;12.38;;
53757;SDS011;39674;59.860;30.672;2022-09-09T18:02:51;17.00;;;10.70;;
53757;SDS011;39674;59.860;30.672;2022-09-09T18:05:24;19.92;;;11.13;;
53757;SDS011;39674;59.860;30.672;2022-09-09T18:08:05;20.20;;;11.90;;
53757;SDS011;39674;59.860;30.672;2022-09-09T18:10:41;16.00;;;11.27;;
53757;SDS011;39674;59.860;30.672;2022-09-09T18:13:28;19.85;;;12.18;;
53757;SDS011;39674;59.860;30.672;2022-09-09T18:18:47;21.27;;;16.48;;
53757;SDS011;39674;59.860;30.672;2022-09-09T18:21:29;26.38;;;19.77;;
53757;SDS011;39674;59.860;30.672;2022-09-09T18:24:21;38.50;;;25.33;;
53757;SDS011;39674;59.860;30.672;2022-09-09T18:26:52;38.30;;;26.52;;
53757;SDS011;39674;59.860;30.672;2022-09-09T18:29:49;34.08;;;24.13;;
53757;SDS011;39674;59.860;30.672;2022-09-09T18:32:30;37.33;;;24.58;;
53757;SDS011;39674;59.860;30.672;2022-09-09T18:35:04;35.80;;;24.85;;
53757;SDS011;39674;59.860;30.672;2022-09-09T18:37:49;34.42;;;24.30;;
53757;SDS011;39674;59.860;30.672;2022-09-09T18:40:37;34.45;;;21.65;;
53757;SDS011;39674;59.860;30.672;2022-09-09T18:43:15;30.02;;;21.52;;
53757;SDS011;39674;59.860;30.672;2022-09-09T18:45:47;32.45;;;21.38;;
53757;SDS011;39674;59.860;30.672;2022-09-09T18:48:19;36.22;;;21.25;;
53757;SDS011;39674;59.860;30.672;2022-09-09T18:50:52;31.90;;;22.05;;
53757;SDS011;39674;59.860;30.672;2022-09-09T18:53:29;25.83;;;18.55;;
53757;SDS011;39674;59.860;30.672;2022-09-09T18:56:11;32.25;;;20.48;;
53757;SDS011;39674;59.860;30.672;2022-09-09T18:58:49;30.50;;;20.05;;
53757;SDS011;39674;59.860;30.672;2022-09-09T19:01:27;29.55;;;17.95;;
53757;SDS011;39674;59.860;30.672;2022-09-09T19:04:01;23.00;;;17.25;;
53757;SDS011;39674;59.860;30.672;2022-09-09T19:06:40;24.52;;;16.35;;
53757;SDS011;39674;59.860;30.672;2022-09-09T19:09:21;26.08;;;16.60;;
53757;SDS011;39674;59.860;30.672;2022-09-09T19:12:02;30.55;;;16.83;;
53757;SDS011;39674;59.860;30.672;2022-09-09T19:14:35;25.77;;;15.55;;
53757;SDS011;39674;59.860;30.672;2022-09-09T19:17:06;21.52;;;14.15;;
53757;SDS011;39674;59.860;30.672;2022-09-09T19:19:43;22.65;;;13.70;;
53757;SDS011;39674;59.860;30.672;2022-09-09T19:22:25;18.65;;;12.57;;
53757;SDS011;39674;59.860;30.672;2022-09-09T19:25:08;23.83;;;12.65;;
53757;SDS011;39674;59.860;30.672;2022-09-09T19:27:37;17.60;;;12.32;;
53757;SDS011;39674;59.860;30.672;2022-09-09T19:30:10;17.75;;;11.35;;
53757;SDS011;39674;59.860;30.672;2022-09-09T19:32:40;30.13;;;14.13;;
53757;SDS011;39674;59.860;30.672;2022-09-09T19:35:14;19.80;;;12.35;;
53757;SDS011;39674;59.860;30.672;2022-09-09T19:37:46;21.23;;;11.93;;
53757;SDS011;39674;59.860;30.672;2022-09-09T19:40:30;31.65;;;13.73;;
53757;SDS011;39674;59.860;30.672;2022-09-09T19:43:29;20.52;;;13.35;;
53757;SDS011;39674;59.860;30.672;2022-09-09T19:46:05;29.00;;;18.73;;
53757;SDS011;39674;59.860;30.672;2022-09-09T19:48:41;32.00;;;20.02;;
53757;SDS011;39674;59.860;30.672;2022-09-09T19:51:19;63.40;;;34.63;;
53757;SDS011;39674;59.860;30.672;2022-09-09T19:53:54;58.33;;;31.83;;
53757;SDS011;39674;59.860;30.672;2022-09-09T19:59:08;57.35;;;29.42;;
53757;SDS011;39674;59.860;30.672;2022-09-09T20:01:46;49.17;;;26.42;;
53757;SDS011;39674;59.860;30.672;2022-09-09T20:04:25;42.15;;;25.95;;
53757;SDS011;39674;59.860;30.672;2022-09-09T20:06:55;43.00;;;23.50;;
53757;SDS011;39674;59.860;30.672;2022-09-09T20:09:29;35.53;;;21.23;;
53757;SDS011;39674;59.860;30.672;2022-09-09T20:12:01;28.73;;;18.35;;
53757;SDS011;39674;59.860;30.672;2022-09-09T20:14:39;26.20;;;16.60;;